Time;durP1;ratioP1;P1;durP2;ratioP2;P2;SDS_P1;SDS_P2;PMS_P1;PMS_P2;Temp;Humidity;BMP_temperature;BMP_pressure;BME280_temperature;BME280_humidity;BME280_pressure;Samples;Min_cycle;Max_cycle;Signal;HPM_P1;HPM_P2
2022/05/30 00:01:42;;;;;;;8.50;3.73;;;;;;;12.44;62.80;100726.00;5038898;28;20205;-64
2022/05/30 00:04:07;;;;;;;9.77;3.97;;;;;;;12.47;63.06;100714.66;5038634;28;20174;-64
2022/05/30 00:06:33;;;;;;;9.83;4.10;;;;;;;12.27;62.82;100723.34;5039162;28;20480;-65
2022/05/30 00:08:58;;;;;;;7.07;4.00;;;;;;;12.20;63.16;100720.72;5037913;28;20177;-64
2022/05/30 00:11:25;;;;;;;12.57;4.40;;;;;;;12.20;63.98;100723.34;5038654;28;20560;-65
2022/05/30 00:13:50;;;;;;;7.67;3.43;;;;;;;12.39;63.52;100725.09;5038793;28;20181;-65
2022/05/30 00:16:17;;;;;;;10.00;4.17;;;;;;;12.59;63.27;100721.66;5038244;28;20443;-64
2022/05/30 00:18:44;;;;;;;11.07;5.17;;;;;;;12.34;64.60;100724.25;5038658;28;20209;-64
2022/05/30 00:21:09;;;;;;;8.77;4.50;;;;;;;12.41;63.56;100728.59;5039113;28;20375;-65
2022/05/30 00:23:34;;;;;;;11.30;3.83;;;;;;;12.31;64.10;100724.22;5038213;28;20478;-64
2022/05/30 00:25:59;;;;;;;9.50;4.07;;;;;;;12.15;64.83;100730.28;5038303;28;20253;-65
2022/05/30 00:28:25;;;;;;;8.90;4.40;;;;;;;12.23;64.64;100725.94;5038615;28;20340;-64
2022/05/30 00:30:51;;;;;;;8.57;3.73;;;;;;;12.26;64.51;100725.97;5038240;28;20558;-64
2022/05/30 00:33:17;;;;;;;10.43;4.80;;;;;;;11.91;65.97;100726.69;5038257;28;20174;-65
2022/05/30 00:35:43;;;;;;;12.60;4.37;;;;;;;11.79;66.77;100725.75;5038833;28;20485;-64
2022/05/30 00:38:09;;;;;;;9.33;3.70;;;;;;;12.15;65.59;100722.44;5038128;28;20391;-64
2022/05/30 00:40:37;;;;;;;7.23;3.50;;;;;;;12.04;65.90;100725.03;5038123;28;20839;-64
2022/05/30 00:43:23;;;;;;;7.70;3.97;;;;;;;12.23;65.30;100725.94;5038379;28;20750;-63
2022/05/30 00:45:48;;;;;;;8.33;4.00;;;;;;;11.93;65.36;100730.16;5037454;28;20459;-65
2022/05/30 00:48:14;;;;;;;8.30;4.10;;;;;;;12.10;66.13;100725.06;5038273;28;20695;-65
2022/05/30 00:50:40;;;;;;;6.50;3.80;;;;;;;12.11;66.12;100722.44;5038153;28;20170;-65
2022/05/30 00:53:06;;;;;;;10.40;4.43;;;;;;;12.15;66.38;100725.94;5037161;28;20829;-63
2022/05/30 00:55:31;;;;;;;11.03;5.27;;;;;;;12.23;66.37;100726.84;5038116;28;20210;-65
2022/05/30 00:57:57;;;;;;;12.13;4.30;;;;;;;11.93;66.43;100733.69;5037271;28;20795;-64
2022/05/30 01:00:25;;;;;;;12.83;5.13;;;;;;;11.92;66.59;100731.94;5037970;28;20526;-64
2022/05/30 01:06:30;;;;;;;10.77;4.63;;;;;;;12.10;66.35;100725.91;5038240;28;20170;-64
2022/05/30 01:08:22;;;;;;;12.60;4.27;;;;;;;12.16;66.92;100721.56;5037441;28;20442;-65
2022/05/30 01:10:48;;;;;;;7.33;4.17;;;;;;;11.84;66.89;100724.91;5037217;28;20392;-66
2022/05/30 01:13:13;;;;;;;10.70;4.17;;;;;;;12.02;66.67;100722.41;5037774;28;20483;-64
2022/05/30 01:15:39;;;;;;;9.70;3.77;;;;;;;11.86;66.61;100729.28;5038220;28;20251;-64
2022/05/30 01:18:21;;;;;;;7.10;3.60;;;;;;;12.00;66.41;100724.16;5037581;28;20480;-64
2022/05/30 01:20:49;;;;;;;5.97;3.83;;;;;;;11.87;66.83;100717.09;5037822;28;20231;-65
2022/05/30 01:23:26;;;;;;;11.17;4.17;;;;;;;12.09;66.29;100718.94;5037633;28;20437;-64
2022/05/30 01:26:19;;;;;;;10.30;4.10;;;;;;;11.85;66.19;100719.69;5037054;28;20441;-64
2022/05/30 01:29:03;;;;;;;9.27;4.53;;;;;;;11.80;66.14;100721.44;5037573;28;20438;-64
2022/05/30 01:31:30;;;;;;;7.00;3.60;;;;;;;11.94;66.16;100722.38;5037013;28;20417;-64
2022/05/30 01:33:55;;;;;;;6.53;3.93;;;;;;;11.96;65.38;100711.91;5041058;28;20507;-64
2022/05/30 01:36:26;;;;;;;5.77;3.70;;;;;;;12.00;65.89;100707.59;5041518;28;20538;-64
2022/05/30 01:38:51;;;;;;;16.03;4.20;;;;;;;11.70;65.67;100715.25;5041891;28;20212;-64
2022/05/30 01:41:17;;;;;;;5.40;3.67;;;;;;;12.10;65.25;100710.22;5041379;28;20413;-66
2022/05/30 01:43:42;;;;;;;4.80;3.67;;;;;;;12.16;65.32;100698.06;5041333;28;20173;-64
2022/05/30 01:46:10;;;;;;;6.63;3.30;;;;;;;12.05;66.07;100714.56;5041832;28;20170;-64
2022/05/30 01:48:35;;;;;;;7.43;3.90;;;;;;;12.03;66.02;100708.47;5041280;28;20178;-65
2022/05/30 01:51:00;;;;;;;8.53;3.60;;;;;;;12.13;65.05;100706.75;5041462;28;20391;-65
2022/05/30 01:53:27;;;;;;;9.07;4.00;;;;;;;11.75;65.80;100713.56;5041611;28;20178;-65
2022/05/30 01:55:52;;;;;;;9.50;3.77;;;;;;;12.00;65.52;100711.09;5041102;28;20213;-65
2022/05/30 01:58:18;;;;;;;9.47;4.10;;;;;;;12.00;64.93;100707.59;5041225;28;20485;-64
2022/05/30 02:00:43;;;;;;;9.20;3.70;;;;;;;12.14;64.72;100703.28;5041444;28;20170;-64
2022/05/30 02:03:08;;;;;;;8.00;4.20;;;;;;;12.22;64.84;100711.16;5040899;28;20528;-63
2022/05/30 02:05:33;;;;;;;11.67;4.20;;;;;;;11.58;65.98;100705.66;5040981;28;20171;-65
2022/05/30 02:08:01;;;;;;;4.00;2.90;;;;;;;12.01;65.09;100704.97;5041517;28;20166;-65
2022/05/30 02:10:26;;;;;;;6.00;3.83;;;;;;;11.73;65.31;100715.31;5040229;28;20567;-65
2022/05/30 02:12:52;;;;;;;11.87;3.90;;;;;;;11.76;64.97;100709.22;5040789;28;20387;-64
2022/05/30 02:15:18;;;;;;;6.50;3.60;;;;;;;11.87;65.02;100709.28;5041146;28;20532;-64
2022/05/30 02:17:43;;;;;;;8.73;4.53;;;;;;;11.87;64.51;100707.50;5040678;28;20225;-65
2022/05/30 02:20:08;;;;;;;8.77;3.80;;;;;;;11.73;64.34;100715.31;5040725;28;20189;-64
2022/05/30 02:22:34;;;;;;;7.63;3.63;;;;;;;11.77;64.59;100716.16;5040951;28;20174;-65
2022/05/30 02:25:00;;;;;;;8.03;3.40;;;;;;;11.54;64.74;100714.34;5040540;28;20265;-65
2022/05/30 02:27:25;;;;;;;6.30;3.27;;;;;;;11.71;64.11;100711.78;5040548;28;20277;-64
2022/05/30 02:29:52;;;;;;;4.63;3.47;;;;;;;11.78;63.77;100713.59;5040497;28;20410;-65
2022/05/30 02:32:18;;;;;;;8.50;3.80;;;;;;;11.61;63.81;100715.25;5040388;28;20170;-65
2022/05/30 02:37:27;;;;;;;10.73;3.63;;;;;;;11.87;63.75;100719.72;5040386;28;20217;-63
2022/05/30 02:39:52;;;;;;;8.13;3.77;;;;;;;11.95;63.59;100710.19;5040442;28;20413;-65
2022/05/30 02:42:18;;;;;;;8.07;3.77;;;;;;;11.89;62.96;100721.47;5039962;28;20174;-64
2022/05/30 02:44:44;;;;;;;7.53;3.33;;;;;;;11.94;63.25;100716.25;5039321;28;20184;-65
2022/05/30 02:47:09;;;;;;;5.40;3.17;;;;;;;12.12;63.88;100713.75;5040368;28;20174;-65
2022/05/30 02:49:35;;;;;;;5.67;3.20;;;;;;;11.84;64.65;100717.06;5039847;28;20466;-65
2022/05/30 02:52:00;;;;;;;8.47;3.23;;;;;;;11.79;64.62;100717.94;5040064;28;20540;-64
2022/05/30 02:54:26;;;;;;;6.47;4.13;;;;;;;11.72;64.52;100715.31;5040034;28;20248;-64
2022/05/30 02:56:54;;;;;;;6.03;3.60;;;;;;;11.91;64.20;100718.84;5040476;28;20285;-64
2022/05/30 02:59:19;;;;;;;9.30;3.70;;;;;;;11.96;63.75;100714.53;5040191;28;20266;-65
2022/05/30 03:01:45;;;;;;;4.80;3.33;;;;;;;11.75;63.97;100729.22;5040037;28;20507;-65
2022/05/30 03:04:10;;;;;;;7.10;3.90;;;;;;;11.79;64.36;100725.75;5040312;28;20499;-63
2022/05/30 03:06:36;;;;;;;4.47;3.50;;;;;;;11.71;64.98;100729.22;5039882;28;20170;-65
2022/05/30 03:09:02;;;;;;;5.70;3.10;;;;;;;11.86;64.05;100720.56;5039855;28;20421;-64
2022/05/30 03:11:28;;;;;;;9.97;3.47;;;;;;;12.00;64.22;100729.38;5040380;28;20536;-64
2022/05/30 03:13:53;;;;;;;10.70;3.80;;;;;;;11.58;65.08;100726.56;5039732;28;20437;-64
2022/05/30 03:16:18;;;;;;;12.30;3.57;;;;;;;11.77;64.89;100727.50;5039606;28;20273;-64
2022/05/30 03:18:44;;;;;;;10.93;3.80;;;;;;;11.68;64.83;100730.06;5040144;28;20262;-64
2022/05/30 03:21:10;;;;;;;6.60;3.40;;;;;;;11.83;64.65;100729.28;5039593;28;20174;-64
2022/05/30 03:23:36;;;;;;;6.30;3.70;;;;;;;12.01;64.48;100727.63;5039498;28;20178;-65
2022/05/30 03:26:01;;;;;;;8.87;4.20;;;;;;;11.65;64.52;100737.00;5039991;28;20620;-65
2022/05/30 03:28:26;;;;;;;9.30;3.80;;;;;;;12.28;64.67;100732.06;5039395;28;20248;-64
2022/05/30 03:30:52;;;;;;;6.70;3.60;;;;;;;12.33;64.63;100725.09;5039494;28;20182;-64
2022/05/30 03:33:17;;;;;;;4.50;3.67;;;;;;;12.05;65.24;100724.16;5039695;28;20177;-64
2022/05/30 03:35:42;;;;;;;6.30;3.33;;;;;;;12.00;65.94;100736.31;5038559;28;20201;-64
2022/05/30 03:38:08;;;;;;;4.73;3.53;;;;;;;11.98;65.87;100728.50;5039311;28;20212;-64
2022/05/30 03:40:36;;;;;;;6.67;3.67;;;;;;;11.75;66.92;100739.69;5039752;28;20253;-64
2022/05/30 03:43:09;;;;;;;8.47;4.07;;;;;;;11.85;67.16;100734.50;5038952;28;20182;-64
2022/05/30 03:45:41;;;;;;;6.20;3.80;;;;;;;12.01;67.27;100731.09;5039212;28;20415;-64
2022/05/30 03:48:08;;;;;;;7.47;3.97;;;;;;;12.11;67.11;100726.81;5039087;28;20474;-65
2022/05/30 03:50:33;;;;;;;7.43;3.93;;;;;;;12.29;67.09;100729.44;5039003;28;20640;-65
2022/05/30 03:53:05;;;;;;;13.43;5.60;;;;;;;12.05;68.15;100726.78;5038580;28;20433;-65
2022/05/30 03:55:32;;;;;;;6.43;4.40;;;;;;;12.29;68.08;100728.59;5038487;28;20438;-65
2022/05/30 03:57:57;;;;;;;5.97;4.00;;;;;;;11.98;69.16;100733.72;5038384;28;20413;-64
2022/05/30 04:00:22;;;;;;;6.73;4.37;;;;;;;11.96;69.47;100738.94;5039335;28;20750;-64
2022/05/30 04:02:48;;;;;;;8.40;4.30;;;;;;;11.88;69.85;100744.94;5038595;28;20170;-65
2022/05/30 04:05:17;;;;;;;7.97;4.97;;;;;;;12.11;69.94;100732.03;5038749;28;20198;-65
2022/05/30 04:07:43;;;;;;;9.23;4.30;;;;;;;11.97;70.83;100745.03;5039317;28;20521;-65
2022/05/30 04:10:08;;;;;;;8.20;4.80;;;;;;;12.04;70.66;100744.19;5038853;28;20466;-64
2022/05/30 04:12:34;;;;;;;7.10;4.80;;;;;;;12.04;70.26;100740.69;5038605;28;20257;-65
2022/05/30 04:15:00;;;;;;;7.70;4.40;;;;;;;11.75;70.61;100744.03;5039168;28;20170;-64
2022/05/30 04:17:26;;;;;;;7.27;4.33;;;;;;;11.87;70.46;100736.25;5038296;28;20548;-64
2022/05/30 04:19:51;;;;;;;11.37;5.30;;;;;;;12.00;69.71;100738.94;5038556;28;20806;-64
2022/05/30 04:22:17;;;;;;;6.60;4.20;;;;;;;11.83;69.92;100744.09;5038856;28;20391;-64
2022/05/30 04:24:42;;;;;;;9.93;4.43;;;;;;;11.88;70.04;100742.34;5038546;28;20253;-64
2022/05/30 04:27:08;;;;;;;4.80;4.30;;;;;;;11.79;70.13;100749.28;5038609;28;20506;-64
2022/05/30 04:29:33;;;;;;;9.97;4.57;;;;;;;11.95;70.28;100741.56;5038156;28;20281;-64
2022/05/30 04:31:59;;;;;;;7.90;4.57;;;;;;;11.90;70.07;100749.31;5038221;28;20566;-64
2022/05/30 04:34:25;;;;;;;9.00;5.20;;;;;;;11.66;70.17;100751.81;5038391;28;20170;-64
2022/05/30 04:36:50;;;;;;;12.03;4.73;;;;;;;12.02;69.39;100745.06;5037838;28;20892;-64
2022/05/30 04:39:16;;;;;;;11.33;4.93;;;;;;;11.94;69.39;100750.22;5038286;28;20470;-64
2022/05/30 04:41:41;;;;;;;9.40;5.07;;;;;;;11.89;70.73;100751.94;5038223;28;20201;-64
2022/05/30 04:44:06;;;;;;;6.53;4.40;;;;;;;12.12;69.69;100759.88;5038652;28;20193;-64
2022/05/30 04:46:32;;;;;;;9.53;4.47;;;;;;;11.85;69.97;100756.25;5038066;28;20574;-65
2022/05/30 04:48:58;;;;;;;8.50;4.97;;;;;;;11.98;70.21;100756.38;5037953;28;20555;-64
2022/05/30 04:51:23;;;;;;;8.13;4.27;;;;;;;12.10;69.63;100756.41;5038633;28;20329;-65
2022/05/30 04:53:48;;;;;;;9.10;4.20;;;;;;;12.09;69.77;100757.28;5037914;28;20178;-65
2022/05/30 04:56:14;;;;;;;8.70;4.90;;;;;;;12.23;69.64;100754.69;5037863;28;20774;-65
2022/05/30 04:58:39;;;;;;;8.20;4.73;;;;;;;12.15;71.04;100745.97;5038547;28;20170;-65
2022/05/30 05:01:07;;;;;;;8.07;5.07;;;;;;;12.07;70.52;100759.88;5037978;28;20235;-64
2022/05/30 05:03:33;;;;;;;6.00;4.33;;;;;;;12.34;69.94;100759.94;5037809;28;20261;-65
2022/05/30 05:06:04;;;;;;;8.90;4.53;;;;;;;12.37;70.33;100759.97;5038505;28;20383;-65
2022/05/30 05:08:53;;;;;;;6.97;4.80;;;;;;;12.43;70.10;100760.88;5040367;28;20419;-63
2022/05/30 05:11:25;;;;;;;9.00;4.40;;;;;;;12.69;69.74;100764.38;5042095;28;20480;-64
2022/05/30 05:13:51;;;;;;;12.90;6.20;;;;;;;12.49;69.84;100766.97;5041747;28;20433;-64
2022/05/30 05:16:19;;;;;;;10.50;4.87;;;;;;;12.40;69.75;100770.44;5040961;28;20545;-65
2022/05/30 05:18:45;;;;;;;10.93;4.77;;;;;;;12.30;70.04;100765.19;5041818;28;20174;-65
2022/05/30 05:21:18;;;;;;;7.37;4.40;;;;;;;12.97;68.68;100763.56;5041875;28;20514;-64
2022/05/30 05:23:43;;;;;;;5.33;4.40;;;;;;;12.86;68.50;100762.66;5041937;28;20416;-64
2022/05/30 05:26:09;;;;;;;13.03;8.70;;;;;;;12.75;68.66;100770.50;5041710;28;20395;-65
2022/05/30 05:28:34;;;;;;;8.07;5.57;;;;;;;12.99;68.11;100763.56;5041557;28;20568;-64
2022/05/30 05:31:00;;;;;;;10.10;6.90;;;;;;;13.13;68.20;100768.78;5042029;28;20431;-64
2022/05/30 05:33:25;;;;;;;7.50;5.73;;;;;;;13.34;68.51;100772.25;5041492;28;20269;-64
2022/05/30 05:35:50;;;;;;;9.40;4.33;;;;;;;13.27;67.10;100774.88;5041370;28;20210;-65
2022/05/30 05:38:15;;;;;;;5.47;4.77;;;;;;;13.38;66.46;100774.91;5041998;28;20218;-64
2022/05/30 05:40:42;;;;;;;6.30;4.30;;;;;;;13.31;66.99;100775.72;5041338;28;20185;-64
2022/05/30 05:43:08;;;;;;;11.43;5.00;;;;;;;13.45;66.86;100778.38;5040484;28;20175;-65
2022/05/30 05:45:34;;;;;;;8.97;4.93;;;;;;;13.14;67.88;100776.63;5041710;28;20390;-64
2022/05/30 05:48:00;;;;;;;9.23;5.20;;;;;;;13.10;68.47;100785.34;5041389;28;20171;-63
2022/05/30 05:50:25;;;;;;;6.90;4.70;;;;;;;12.98;68.38;100774.88;5041100;28;20408;-65
2022/05/30 05:52:52;;;;;;;12.20;7.83;;;;;;;12.69;68.47;100782.69;5041584;28;20447;-64
2022/05/30 05:55:17;;;;;;;5.63;4.50;;;;;;;12.79;68.75;100787.09;5040871;28;20257;-64
2022/05/30 05:57:43;;;;;;;4.77;4.13;;;;;;;12.89;67.66;100795.81;5041091;28;20739;-65
2022/05/30 06:00:08;;;;;;;9.87;4.23;;;;;;;12.71;68.50;100792.28;5041361;28;20176;-65
2022/05/30 06:02:34;;;;;;;9.20;5.90;;;;;;;13.15;67.18;100790.56;5040853;28;20249;-64
2022/05/30 06:05:00;;;;;;;7.00;4.40;;;;;;;13.28;65.90;100783.59;5040946;28;20178;-67
2022/05/30 06:07:25;;;;;;;7.90;4.40;;;;;;;12.90;65.48;100795.81;5041320;28;20204;-64
2022/05/30 06:09:51;;;;;;;5.80;3.83;;;;;;;13.01;66.16;100790.56;5040719;28;20471;-64
2022/05/30 06:12:16;;;;;;;8.00;4.40;;;;;;;13.23;66.49;100794.09;5040700;28;20170;-65
2022/05/30 06:14:41;;;;;;;10.57;5.87;;;;;;;13.26;65.66;100795.78;5041230;28;20174;-64
2022/05/30 06:17:07;;;;;;;6.10;4.23;;;;;;;13.87;64.64;100789.63;5040829;28;20234;-65
2022/05/30 06:19:32;;;;;;;8.30;4.80;;;;;;;13.78;63.33;100792.28;5040391;28;20174;-64
2022/05/30 06:21:57;;;;;;;8.20;3.87;;;;;;;13.31;63.76;100794.94;5041057;28;20535;-65
2022/05/30 06:24:23;;;;;;;7.73;4.27;;;;;;;13.66;65.14;100794.94;5040657;28;20182;-65
2022/05/30 06:26:48;;;;;;;7.63;3.90;;;;;;;13.51;65.20;100798.44;5040748;28;20220;-63
2022/05/30 06:29:14;;;;;;;4.53;4.10;;;;;;;13.42;64.81;100801.94;5040822;28;20178;-64
2022/05/30 06:31:40;;;;;;;6.60;3.93;;;;;;;13.58;64.91;100814.13;5040517;28;20166;-64
2022/05/30 06:34:05;;;;;;;11.10;4.07;;;;;;;13.92;64.18;100808.84;5040286;28;20174;-64
2022/05/30 06:36:31;;;;;;;6.77;4.20;;;;;;;13.48;64.42;100813.28;5040827;28;20437;-63
2022/05/30 06:38:57;;;;;;;6.63;4.00;;;;;;;13.43;64.57;100819.41;5040345;28;20539;-64
2022/05/30 06:41:25;;;;;;;7.73;4.30;;;;;;;13.72;64.48;100811.50;5040222;28;20189;-64
2022/05/30 06:43:52;;;;;;;10.97;4.27;;;;;;;13.71;64.43;100815.00;5040666;28;20273;-64
2022/05/30 06:46:17;;;;;;;8.57;4.10;;;;;;;14.07;64.25;100813.16;5040073;28;20786;-63
2022/05/30 06:48:43;;;;;;;7.70;4.20;;;;;;;14.10;64.11;100813.13;5040095;28;20405;-65
2022/05/30 06:51:11;;;;;;;6.77;4.50;;;;;;;13.82;63.80;100813.22;5040686;28;20427;-65
2022/05/30 06:53:37;;;;;;;8.13;4.23;;;;;;;13.76;63.67;100821.09;5039263;28;20220;-64
2022/05/30 06:56:14;;;;;;;5.93;4.00;;;;;;;13.37;65.14;100814.16;5039989;28;20496;-64
2022/05/30 06:58:40;;;;;;;8.03;4.23;;;;;;;13.55;64.48;100814.13;5039977;28;20806;-64
2022/05/30 07:01:05;;;;;;;9.90;4.23;;;;;;;13.71;62.92;100815.00;5039839;28;20418;-65
2022/05/30 07:03:31;;;;;;;16.90;4.60;;;;;;;13.93;62.46;100818.41;5040113;28;20182;-64
2022/05/30 07:05:56;;;;;;;13.70;4.70;;;;;;;13.60;63.72;100815.00;5039866;28;20200;-63
2022/05/30 07:08:23;;;;;;;9.60;3.90;;;;;;;14.26;61.54;100816.56;5039741;28;20224;-64
2022/05/30 07:10:48;;;;;;;7.67;4.03;;;;;;;14.05;60.44;100821.91;5040217;28;20177;-65
2022/05/30 07:13:14;;;;;;;7.83;3.57;;;;;;;14.76;59.51;100814.59;5039553;28;20773;-65
2022/05/30 07:15:40;;;;;;;4.90;3.40;;;;;;;14.86;58.35;100815.38;5039543;28;20202;-64
2022/05/30 07:18:07;;;;;;;9.47;4.33;;;;;;;14.73;59.00;100818.97;5039864;28;20193;-64
2022/05/30 07:20:32;;;;;;;8.43;4.20;;;;;;;14.96;58.20;100821.44;5039515;28;20409;-63
2022/05/30 07:22:58;;;;;;;6.30;3.80;;;;;;;14.91;58.72;100828.47;5039305;28;20508;-64
2022/05/30 07:25:23;;;;;;;4.80;3.80;;;;;;;15.08;57.95;100823.09;5039662;28;20174;-64
2022/05/30 07:27:48;;;;;;;4.27;2.90;;;;;;;15.42;55.09;100823.69;5039280;28;20213;-65
2022/05/30 07:30:13;;;;;;;8.40;4.07;;;;;;;15.28;57.43;100815.06;5038543;28;20209;-65
2022/05/30 07:32:39;;;;;;;5.03;3.13;;;;;;;16.47;53.71;100814.66;5039725;28;20196;-64
2022/05/30 07:35:04;;;;;;;6.30;3.60;;;;;;;16.83;55.61;100809.75;5039196;28;20269;-64
2022/05/30 07:37:30;;;;;;;4.17;2.90;;;;;;;16.31;55.53;100813.13;5038316;28;20221;-64
2022/05/30 07:39:55;;;;;;;5.23;3.40;;;;;;;15.72;57.49;100813.78;5039392;28;20186;-65
2022/05/30 07:42:21;;;;;;;3.73;3.07;;;;;;;15.30;59.24;100815.91;5038898;28;20178;-64
2022/05/30 07:44:46;;;;;;;10.50;4.10;;;;;;;15.05;60.05;100824.00;5038924;28;20182;-65
2022/05/30 07:47:11;;;;;;;5.40;3.67;;;;;;;14.48;61.10;100829.59;5039407;28;20173;-64
2022/05/30 07:49:37;;;;;;;5.70;3.10;;;;;;;14.29;61.76;100827.03;5039347;28;20528;-64
2022/05/30 07:52:02;;;;;;;5.97;3.43;;;;;;;14.39;61.67;100825.22;5038796;28;20190;-65
2022/05/30 07:54:28;;;;;;;4.37;3.67;;;;;;;14.34;62.25;100821.75;5039174;28;20179;-65
2022/05/30 07:56:53;;;;;;;4.10;3.70;;;;;;;14.22;63.60;100821.81;5038752;28;20193;-66
2022/05/30 07:59:19;;;;;;;6.30;5.03;;;;;;;14.13;63.61;100834.09;5038733;28;20473;-65
2022/05/30 08:01:44;;;;;;;5.90;3.73;;;;;;;13.79;63.68;100833.31;5039046;28;20175;-65
2022/05/30 08:04:13;;;;;;;9.53;3.87;;;;;;;13.73;63.57;100828.09;5038297;28;20189;-65
2022/05/30 08:06:39;;;;;;;4.87;3.73;;;;;;;13.62;64.01;100833.34;5038362;28;20227;-65
2022/05/30 08:09:05;;;;;;;8.73;4.37;;;;;;;13.96;63.01;100835.88;5039169;28;20416;-65
2022/05/30 08:11:31;;;;;;;7.43;3.50;;;;;;;13.96;62.40;100830.66;5038365;28;20696;-66
2022/05/30 08:13:56;;;;;;;7.33;4.07;;;;;;;14.27;63.25;100827.91;5038187;28;20269;-65
2022/05/30 08:16:24;;;;;;;10.73;4.87;;;;;;;14.08;61.71;100835.84;5038394;28;20236;-66
2022/05/30 08:18:49;;;;;;;6.67;4.90;;;;;;;14.23;62.01;100832.28;5038281;28;20166;-65
2022/05/30 08:21:15;;;;;;;5.23;3.93;;;;;;;14.46;60.36;100832.22;5038473;28;20399;-65
2022/05/30 08:23:41;;;;;;;4.30;3.17;;;;;;;14.42;60.10;100830.50;5037347;28;20178;-66
2022/05/30 08:26:07;;;;;;;5.43;3.67;;;;;;;14.72;58.93;100835.59;5038284;28;20499;-65
2022/05/30 08:28:33;;;;;;;5.93;3.43;;;;;;;14.87;58.75;100832.88;5038439;28;20216;-65
2022/05/30 08:30:58;;;;;;;6.60;4.90;;;;;;;15.44;56.23;100835.06;5038257;28;20417;-65
2022/05/30 08:33:24;;;;;;;4.83;3.17;;;;;;;14.65;56.73;100840.00;5038135;28;20174;-65
2022/05/30 08:36:07;;;;;;;4.77;3.37;;;;;;;15.39;55.79;100838.63;5038305;28;20190;-65
2022/05/30 08:38:36;;;;;;;6.73;3.60;;;;;;;14.62;57.22;100842.63;5038219;28;20166;-65
2022/05/30 08:43:52;;;;;;;3.73;3.03;;;;;;;14.78;57.83;100844.31;5038196;28;20423;-65
2022/05/30 08:46:47;;;;;;;4.93;3.10;;;;;;;14.51;58.23;100844.44;5038067;28;20421;-65
2022/05/30 08:49:14;;;;;;;4.17;2.60;;;;;;;14.09;59.36;100842.84;5037243;28;20443;-65
2022/05/30 08:51:52;;;;;;;6.20;2.60;;;;;;;13.67;60.65;100852.56;5038093;28;20483;-64
2022/05/30 08:54:54;;;;;;;4.47;2.97;;;;;;;13.62;61.86;100854.31;5037157;28;20474;-65
2022/05/30 08:57:30;;;;;;;3.80;3.20;;;;;;;13.63;61.45;100854.28;5037249;28;20480;-64
2022/05/30 09:00:07;;;;;;;4.17;3.23;;;;;;;13.82;61.69;100868.22;5037993;28;20690;-65
2022/05/30 09:02:38;;;;;;;5.50;3.43;;;;;;;13.67;60.49;100857.78;5037678;28;20409;-65
2022/05/30 09:05:08;;;;;;;7.40;3.37;;;;;;;13.63;59.54;100861.28;5037711;28;20815;-65
2022/05/30 09:07:39;;;;;;;3.97;3.47;;;;;;;14.05;59.58;100856.84;5037067;28;20388;-65
2022/05/30 09:10:09;;;;;;;5.63;3.47;;;;;;;14.08;59.58;100854.19;5037743;28;20706;-64
2022/05/30 09:12:45;;;;;;;5.27;3.23;;;;;;;14.63;56.94;100853.13;5036863;28;20421;-66
2022/05/30 09:15:17;;;;;;;4.77;3.30;;;;;;;14.75;56.73;100849.56;5037100;28;20802;-65
2022/05/30 09:17:52;;;;;;;5.50;3.77;;;;;;;15.18;56.32;100842.28;5037589;28;20447;-65
2022/05/30 09:20:22;;;;;;;5.90;2.97;;;;;;;15.46;54.21;100843.78;5036970;28;20408;-65
2022/05/30 09:22:48;;;;;;;3.97;3.57;;;;;;;15.64;53.85;100847.13;5037439;28;20503;-64
2022/05/30 09:28:00;;;;;;;4.53;2.70;;;;;;;15.85;51.46;100845.22;5037492;28;20205;-66
2022/05/30 09:30:33;;;;;;;4.10;3.10;;;;;;;15.63;52.37;100845.41;5037320;28;20409;-65
2022/05/30 09:33:12;;;;;;;3.80;3.50;;;;;;;15.58;52.91;100847.19;5036837;28;20181;-68
2022/05/30 09:35:38;;;;;;;3.70;3.33;;;;;;;15.00;53.30;100852.03;5036841;28;20471;-65
2022/05/30 09:38:17;;;;;;;4.17;3.17;;;;;;;14.76;54.47;100861.81;5036993;28;20807;-65
2022/05/30 09:40:47;;;;;;;3.77;3.37;;;;;;;15.07;54.10;100860.75;5037344;28;20650;-66
2022/05/30 09:43:25;;;;;;;4.77;3.50;;;;;;;14.80;55.10;100867.91;5037502;28;20417;-66
2022/05/30 09:45:51;;;;;;;3.30;3.00;;;;;;;14.67;55.20;100869.75;5037589;28;20814;-64
2022/05/30 09:48:19;;;;;;;4.73;3.20;;;;;;;14.91;54.80;100867.84;5037417;28;20413;-66
2022/05/30 09:50:48;;;;;;;3.57;3.17;;;;;;;14.21;55.79;100877.78;5036708;28;20527;-65
2022/05/30 09:53:41;;;;;;;3.60;2.80;;;;;;;14.73;53.95;100872.31;5037470;28;20695;-65
2022/05/30 09:56:08;;;;;;;3.50;2.90;;;;;;;14.51;54.92;100878.53;5040426;28;20468;-66
2022/05/30 09:58:46;;;;;;;2.60;2.33;;;;;;;14.27;54.66;100880.38;5041021;28;20424;-65
2022/05/30 10:01:11;;;;;;;2.93;2.00;;;;;;;14.42;54.23;100879.44;5041004;28;20681;-66
2022/05/30 10:03:40;;;;;;;6.13;2.60;;;;;;;14.32;54.60;100887.34;5040124;28;20470;-65
2022/05/30 10:06:21;;;;;;;7.47;2.90;;;;;;;14.40;54.17;100887.31;5040129;28;20174;-65
2022/05/30 10:08:46;;;;;;;4.33;2.10;;;;;;;14.45;53.23;100885.56;5040711;28;20403;-65
2022/05/30 10:11:32;;;;;;;3.07;2.27;;;;;;;14.88;51.67;100886.25;5039734;28;20473;-64
2022/05/30 10:13:58;;;;;;;3.43;2.10;;;;;;;14.62;51.26;100881.97;5040731;28;20178;-64
2022/05/30 10:16:32;;;;;;;3.00;2.43;;;;;;;14.17;52.58;100892.63;5040430;28;20489;-66
2022/05/30 10:19:03;;;;;;;3.80;2.10;;;;;;;14.08;52.11;100888.28;5040117;28;20174;-65
2022/05/30 10:28:15;;;;;;;4.47;2.00;;;;;;;14.44;51.39;100891.66;5040280;28;20432;-65
2022/05/30 10:30:54;;;;;;;4.87;2.30;;;;;;;15.26;50.53;100886.00;5039727;28;20763;-65
2022/05/30 10:33:37;;;;;;;2.37;2.10;;;;;;;14.91;50.88;100894.97;5039618;28;20423;-65
2022/05/30 10:36:09;;;;;;;1.80;1.70;;;;;;;15.26;48.98;100887.75;5040480;28;20551;-65
2022/05/30 10:38:39;;;;;;;3.50;2.53;;;;;;;15.39;48.47;100894.66;5040352;28;20508;-65
2022/05/30 10:41:10;;;;;;;4.57;2.37;;;;;;;15.93;48.35;100894.19;5040359;28;20491;-65
2022/05/30 10:43:49;;;;;;;3.60;2.90;;;;;;;15.76;47.93;100891.72;5039396;28;20642;-66
2022/05/30 10:46:42;;;;;;;2.30;2.10;;;;;;;15.78;47.28;100897.81;5040248;28;20425;-65
2022/05/30 10:49:12;;;;;;;5.20;2.73;;;;;;;15.77;47.67;100895.22;5039889;28;20429;-66
2022/05/30 10:52:11;;;;;;;2.27;2.00;;;;;;;15.45;47.78;100909.47;5040129;28;20420;-65
2022/05/30 10:54:46;;;;;;;2.03;1.83;;;;;;;15.30;48.32;100908.75;5039289;28;20432;-65
2022/05/30 10:57:35;;;;;;;5.90;2.77;;;;;;;15.51;48.60;100913.84;5039379;28;20469;-66
2022/05/30 11:00:13;;;;;;;2.77;2.50;;;;;;;15.07;48.98;100910.63;5039845;28;20710;-65
2022/05/30 11:03:06;;;;;;;4.67;2.60;;;;;;;15.23;48.27;100914.03;5039046;28;20665;-65
2022/05/30 11:05:37;;;;;;;2.97;2.67;;;;;;;15.78;46.77;100908.34;5038776;28;20698;-66
2022/05/30 11:08:21;;;;;;;3.20;2.33;;;;;;;16.16;46.20;100909.72;5039105;28;20396;-65
2022/05/30 11:10:56;;;;;;;3.77;2.70;;;;;;;16.19;45.90;100908.81;5039699;28;20870;-65
2022/05/30 11:13:33;;;;;;;2.40;2.20;;;;;;;17.21;44.69;100907.56;5039529;28;20423;-66
2022/05/30 11:16:07;;;;;;;3.10;2.70;;;;;;;17.31;43.51;100903.00;5039594;28;20463;-65
2022/05/30 11:18:46;;;;;;;2.40;2.03;;;;;;;17.49;43.42;100901.84;5039724;28;20677;-65
2022/05/30 11:21:30;;;;;;;2.70;2.50;;;;;;;17.87;43.71;100907.34;5039084;28;20394;-66
2022/05/30 11:24:00;;;;;;;4.37;2.27;;;;;;;17.72;43.84;100896.16;5039499;28;20802;-65
2022/05/30 11:27:03;;;;;;;3.83;2.50;;;;;;;17.29;45.13;100899.50;5039454;28;20417;-65
2022/05/30 11:29:46;;;;;;;3.13;2.50;;;;;;;17.30;46.02;100901.25;5039471;28;20689;-65
2022/05/30 11:32:33;;;;;;;4.53;2.80;;;;;;;16.50;48.85;100903.22;5038618;28;20449;-66
2022/05/30 11:35:23;;;;;;;2.90;2.60;;;;;;;16.10;50.13;100909.81;5039249;28;20393;-66
2022/05/30 11:38:31;;;;;;;3.03;2.73;;;;;;;15.72;51.73;100910.16;5039240;28;20490;-65
2022/05/30 11:41:26;;;;;;;6.93;2.90;;;;;;;15.15;53.21;100919.31;5039337;28;20420;-65
2022/05/30 11:44:13;;;;;;;2.70;2.50;;;;;;;15.15;53.52;100920.22;5038822;28;20428;-65
2022/05/30 11:46:55;;;;;;;3.57;2.53;;;;;;;14.93;54.25;100921.22;5039174;28;20452;-65
2022/05/30 11:49:34;;;;;;;3.40;2.80;;;;;;;14.95;53.79;100924.69;5038239;28;20436;-65
2022/05/30 11:52:18;;;;;;;3.90;2.30;;;;;;;14.79;53.68;100919.53;5038192;28;20420;-65